createdAt,value
2022-12-26T00:02:01.545Z,49.05
2022-12-26T00:04:51.549Z,50.67
2022-12-26T00:07:14.474Z,45.90
2022-12-26T00:09:40.899Z,48.85
2022-12-26T00:12:07.374Z,47.63
2022-12-26T00:14:33.952Z,45.63
2022-12-26T00:17:00.344Z,45.30
2022-12-26T00:19:26.759Z,56.67
2022-12-26T00:21:53.216Z,48.00
2022-12-26T00:24:19.621Z,46.58
2022-12-26T00:26:46.034Z,51.33
2022-12-26T00:29:12.477Z,51.95
2022-12-26T00:31:38.928Z,53.08
2022-12-26T00:34:05.487Z,60.90
2022-12-26T00:36:33.747Z,53.38
2022-12-26T00:39:01.949Z,52.95
2022-12-26T00:41:29.005Z,60.67
2022-12-26T00:43:56.273Z,57.92
2022-12-26T00:46:23.343Z,58.10
2022-12-26T00:48:49.834Z,53.47
2022-12-26T00:51:16.371Z,54.40
2022-12-26T00:53:43.108Z,58.75
2022-12-26T00:56:09.839Z,72.60
2022-12-26T00:58:36.858Z,78.28
2022-12-26T01:01:10.814Z,59.20
2022-12-26T01:03:37.386Z,68.60
2022-12-26T01:06:04.227Z,63.42
2022-12-26T01:08:31.166Z,57.80
2022-12-26T01:10:58.108Z,70.32
2022-12-26T01:13:24.561Z,62.63
2022-12-26T01:15:52.482Z,76.65
2022-12-26T01:18:19.621Z,70.40
2022-12-26T01:20:46.363Z,55.10
2022-12-26T01:23:12.803Z,56.42
2022-12-26T01:26:19.308Z,83.13
2022-12-26T01:28:26.570Z,55.33
2022-12-26T01:30:53.099Z,62.35
2022-12-26T01:33:19.665Z,56.75
2022-12-26T01:35:51.153Z,69.50
2022-12-26T01:40:44.440Z,56.30
2022-12-26T01:43:12.677Z,56.42
2022-12-26T01:45:39.705Z,63.67
2022-12-26T01:48:18.692Z,60.58
2022-12-26T01:50:53.047Z,63.85
2022-12-26T01:53:28.901Z,73.93
2022-12-26T01:56:01.260Z,60.75
2022-12-26T01:58:34.166Z,72.15
2022-12-26T02:01:03.588Z,72.28
2022-12-26T02:03:48.929Z,78.30
2022-12-26T02:06:16.241Z,70.68
2022-12-26T02:08:44.237Z,65.95
2022-12-26T02:11:37.812Z,65.15
2022-12-26T02:14:07.276Z,70.50
2022-12-26T02:16:35.921Z,75.00
2022-12-26T02:19:03.732Z,84.93
2022-12-26T02:21:33.138Z,71.10
2022-12-26T02:23:59.530Z,68.47
2022-12-26T02:26:48.161Z,67.45
2022-12-26T02:29:23.636Z,73.22
2022-12-26T02:32:14.689Z,73.18
2022-12-26T02:35:14.780Z,88.50
2022-12-26T02:38:02.991Z,73.40
2022-12-26T02:40:53.802Z,96.70
2022-12-26T02:43:45.264Z,83.67
2022-12-26T02:46:39.442Z,74.72
2022-12-26T02:49:17.839Z,73.05
2022-12-26T02:52:15.023Z,70.53
2022-12-26T02:54:59.674Z,76.10
2022-12-26T02:57:59.714Z,72.85
2022-12-26T03:00:46.050Z,69.40
2022-12-26T03:03:37.257Z,75.57
2022-12-26T03:06:24.082Z,70.05
2022-12-26T03:09:32.224Z,78.53
2022-12-26T03:12:25.060Z,79.65
2022-12-26T03:14:57.955Z,84.32
2022-12-26T03:17:30.653Z,105.50
2022-12-26T03:20:03.307Z,76.28
2022-12-26T03:22:41.702Z,79.05
2022-12-26T03:25:30.391Z,78.93
2022-12-26T03:27:57.053Z,79.18
2022-12-26T03:30:42.038Z,80.45
2022-12-26T03:33:31.498Z,79.30
2022-12-26T03:35:58.765Z,76.63
2022-12-26T03:38:55.301Z,72.90
2022-12-26T03:41:58.389Z,76.75
2022-12-26T03:44:55.727Z,86.30
2022-12-26T03:47:58.723Z,82.75
2022-12-26T03:51:08.543Z,76.22
2022-12-26T03:54:22.127Z,79.38
2022-12-26T03:57:14.362Z,78.65
2022-12-26T04:00:11.156Z,77.97
2022-12-26T04:02:58.808Z,79.03
2022-12-26T04:05:44.610Z,84.03
2022-12-26T04:08:35.561Z,87.75
2022-12-26T04:11:22.940Z,77.65
2022-12-26T04:14:19.614Z,83.43
2022-12-26T04:17:10.525Z,79.65
2022-12-26T04:19:51.093Z,80.00
2022-12-26T04:22:53.648Z,86.03
2022-12-26T04:25:49.761Z,75.10
2022-12-26T04:28:37.560Z,77.30
2022-12-26T04:31:41.697Z,78.50
2022-12-26T04:34:37.949Z,82.43
2022-12-26T04:37:30.147Z,72.93
2022-12-26T04:40:17.368Z,74.38
2022-12-26T04:43:47.438Z,80.30
2022-12-26T04:45:52.724Z,82.38
2022-12-26T04:48:37.834Z,78.53
2022-12-26T04:51:04.617Z,82.47
2022-12-26T04:53:31.055Z,82.30
2022-12-26T04:55:57.433Z,80.93
2022-12-26T04:58:24.326Z,77.85
2022-12-26T05:00:51.034Z,82.00
2022-12-26T05:03:36.399Z,76.32
2022-12-26T05:06:21.616Z,72.88
2022-12-26T05:09:06.291Z,79.47
2022-12-26T05:11:35.166Z,76.65
2022-12-26T05:14:01.814Z,71.20
2022-12-26T05:16:47.104Z,71.38
2022-12-26T05:19:33.850Z,75.65
2022-12-26T05:22:21.101Z,80.53
2022-12-26T05:25:06.457Z,80.60
2022-12-26T05:27:55.790Z,76.90
2022-12-26T05:30:23.030Z,74.85
2022-12-26T05:33:07.762Z,67.93
2022-12-26T05:35:35.404Z,83.45
2022-12-26T05:38:02.474Z,76.75
2022-12-26T05:40:28.987Z,79.05
2022-12-26T05:42:55.435Z,73.75
2022-12-26T05:45:21.856Z,76.38
2022-12-26T05:47:51.790Z,80.63
2022-12-26T05:50:18.701Z,70.97
2022-12-26T05:52:45.103Z,75.35
2022-12-26T05:55:11.513Z,78.15
2022-12-26T05:57:37.957Z,75.93
2022-12-26T06:00:05.089Z,71.25
2022-12-26T06:02:31.553Z,84.10
2022-12-26T06:04:58.018Z,79.55
2022-12-26T06:07:24.547Z,78.03
2022-12-26T06:09:50.984Z,81.10
2022-12-26T06:12:17.402Z,83.72
2022-12-26T06:14:43.879Z,90.47
2022-12-26T06:17:10.543Z,79.32
2022-12-26T06:19:41.517Z,77.82
2022-12-26T06:22:11.254Z,86.30
2022-12-26T06:24:37.667Z,79.53
2022-12-26T06:27:04.227Z,91.75
2022-12-26T06:29:30.671Z,84.28
2022-12-26T06:31:57.128Z,84.25
2022-12-26T06:34:23.617Z,92.95
2022-12-26T06:36:50.024Z,92.60
2022-12-26T06:39:16.441Z,74.63
2022-12-26T06:41:42.865Z,94.13
2022-12-26T06:44:17.735Z,92.72
2022-12-26T06:46:44.504Z,86.43
2022-12-26T06:49:10.962Z,108.05
2022-12-26T06:51:37.433Z,86.43
2022-12-26T06:54:04.133Z,92.93
2022-12-26T06:56:32.399Z,81.78
2022-12-26T06:59:01.759Z,86.38
2022-12-26T07:01:30.148Z,89.63
2022-12-26T07:03:56.995Z,82.00
2022-12-26T07:06:28.081Z,80.50
2022-12-26T07:09:01.000Z,85.45
2022-12-26T07:11:31.174Z,82.47
2022-12-26T07:13:57.871Z,80.47
2022-12-26T07:16:25.434Z,66.38
2022-12-26T07:18:53.932Z,77.28
2022-12-26T07:21:21.700Z,79.10
2022-12-26T07:23:48.322Z,74.97
2022-12-26T07:26:14.942Z,74.57
2022-12-26T07:28:41.457Z,96.32
2022-12-26T07:31:08.082Z,83.35
2022-12-26T07:33:35.180Z,87.65
2022-12-26T07:36:03.608Z,91.30
2022-12-26T07:38:30.374Z,76.72
2022-12-26T07:40:57.329Z,80.95
2022-12-26T07:43:26.154Z,72.88
2022-12-26T07:45:52.746Z,77.38
2022-12-26T07:48:19.268Z,77.10
2022-12-26T07:50:47.304Z,70.63
2022-12-26T07:53:14.740Z,69.90
2022-12-26T07:55:41.395Z,75.72
2022-12-26T07:58:07.828Z,79.78
2022-12-26T08:00:34.322Z,71.43
2022-12-26T08:03:06.951Z,81.43
2022-12-26T08:05:34.406Z,71.25
2022-12-26T08:08:00.844Z,77.07
2022-12-26T08:10:27.367Z,72.95
2022-12-26T08:12:53.862Z,83.07
2022-12-26T08:15:20.267Z,70.47
2022-12-26T08:17:46.687Z,69.88
2022-12-26T08:20:13.134Z,78.53
2022-12-26T08:22:39.604Z,67.80
2022-12-26T08:25:06.611Z,129.90
2022-12-26T08:27:33.896Z,87.63
2022-12-26T08:30:00.318Z,83.13
2022-12-26T08:32:27.009Z,69.43
2022-12-26T08:34:53.433Z,75.50
2022-12-26T08:37:19.933Z,104.18
2022-12-26T08:39:46.386Z,93.07
2022-12-26T08:42:12.842Z,116.15
2022-12-26T08:44:39.419Z,99.40
2022-12-26T08:47:05.868Z,69.55
2022-12-26T08:49:32.336Z,74.43
2022-12-26T08:52:12.507Z,63.40
2022-12-26T08:54:39.005Z,72.78
2022-12-26T08:57:05.425Z,63.50
2022-12-26T08:59:31.878Z,70.10
2022-12-26T09:01:58.336Z,68.63
2022-12-26T09:04:24.859Z,67.80
2022-12-26T09:06:51.403Z,62.58
2022-12-26T09:09:18.336Z,74.82
2022-12-26T09:11:44.880Z,65.63
2022-12-26T09:14:11.859Z,74.80
2022-12-26T09:16:49.540Z,69.47
2022-12-26T09:19:17.679Z,81.13
2022-12-26T09:21:44.673Z,72.05
2022-12-26T09:24:15.919Z,74.32
2022-12-26T09:26:42.907Z,76.13
2022-12-26T09:29:15.116Z,72.40
2022-12-26T09:31:41.548Z,73.80
2022-12-26T09:34:08.147Z,90.50
2022-12-26T09:36:42.947Z,79.38
2022-12-26T09:39:11.241Z,90.75
2022-12-26T09:42:08.422Z,79.25
2022-12-26T09:44:48.547Z,69.03
2022-12-26T09:47:32.121Z,84.32
2022-12-26T09:50:11.488Z,91.30
2022-12-26T09:52:40.854Z,71.68
2022-12-26T09:55:24.959Z,69.03
2022-12-26T09:57:53.644Z,68.68
2022-12-26T10:00:30.496Z,71.15
2022-12-26T10:02:58.903Z,72.20
2022-12-26T10:05:31.259Z,68.15
2022-12-26T10:08:23.603Z,73.28
2022-12-26T10:11:07.526Z,60.72
2022-12-26T10:13:53.557Z,68.28
2022-12-26T10:17:00.690Z,62.40
2022-12-26T10:19:48.755Z,60.38
2022-12-26T10:23:08.412Z,59.85
2022-12-26T10:25:43.587Z,59.13
2022-12-26T10:28:17.244Z,65.93
2022-12-26T10:30:45.908Z,63.88
2022-12-26T10:33:20.591Z,59.78
2022-12-26T10:35:48.009Z,61.83
2022-12-26T10:38:38.188Z,69.20
2022-12-26T10:41:26.021Z,64.63
2022-12-26T10:43:56.577Z,67.63
2022-12-26T10:46:44.226Z,67.13
2022-12-26T10:49:13.577Z,66.68
2022-12-26T10:51:40.089Z,56.88
2022-12-26T10:54:17.893Z,67.00
2022-12-26T10:56:46.150Z,58.60
2022-12-26T10:59:17.780Z,64.80
2022-12-26T11:01:47.592Z,56.65
2022-12-26T11:04:53.206Z,66.22
2022-12-26T11:07:17.491Z,56.95
2022-12-26T11:09:48.376Z,68.13
2022-12-26T11:12:25.740Z,56.67
2022-12-26T11:14:59.237Z,58.13
2022-12-26T11:17:30.408Z,56.28
2022-12-26T11:20:25.334Z,71.70
2022-12-26T11:22:52.537Z,65.75
2022-12-26T11:25:25.429Z,65.97
2022-12-26T11:27:57.701Z,58.47
2022-12-26T11:30:25.793Z,53.22
2022-12-26T11:33:13.482Z,63.22
2022-12-26T11:35:51.042Z,60.10
2022-12-26T11:38:45.062Z,61.42
2022-12-26T11:41:33.461Z,63.17
2022-12-26T11:44:21.666Z,52.50
2022-12-26T11:47:08.406Z,63.38
2022-12-26T11:49:39.369Z,54.88
2022-12-26T11:52:37.436Z,58.08
2022-12-26T11:55:22.367Z,64.55
2022-12-26T11:58:13.654Z,56.90
2022-12-26T12:00:51.129Z,66.15
2022-12-26T12:03:22.751Z,65.68
2022-12-26T12:06:03.134Z,61.55
2022-12-26T12:08:51.299Z,62.75
2022-12-26T12:11:42.410Z,65.25
2022-12-26T12:14:31.940Z,60.38
2022-12-26T12:17:27.154Z,65.55
2022-12-26T12:20:15.518Z,68.18
2022-12-26T12:23:03.749Z,63.28
2022-12-26T12:25:40.250Z,65.57
2022-12-26T12:28:22.804Z,65.70
2022-12-26T12:31:08.030Z,60.90
2022-12-26T12:33:48.861Z,63.38
2022-12-26T12:36:20.000Z,61.25
2022-12-26T12:38:56.723Z,63.15
2022-12-26T12:42:00.953Z,69.20
2022-12-26T12:44:55.550Z,63.45
2022-12-26T12:47:43.339Z,67.10
2022-12-26T12:50:31.127Z,65.78
2022-12-26T12:53:09.474Z,68.53
2022-12-26T12:55:39.049Z,64.97
2022-12-26T12:58:12.710Z,60.65
2022-12-26T13:00:48.191Z,57.00
2022-12-26T13:03:33.879Z,63.08
2022-12-26T13:06:13.827Z,65.72
2022-12-26T13:08:45.325Z,59.63
2022-12-26T13:11:22.744Z,63.65
2022-12-26T13:14:16.256Z,60.05
2022-12-26T13:16:51.662Z,70.90
2022-12-26T13:19:24.980Z,59.97
2022-12-26T13:21:55.226Z,54.72
2022-12-26T13:24:35.865Z,64.43
2022-12-26T13:27:11.700Z,61.77
2022-12-26T13:29:46.545Z,64.38
2022-12-26T13:32:18.137Z,58.95
2022-12-26T13:34:46.133Z,71.22
2022-12-26T13:37:37.331Z,66.80
2022-12-26T13:40:16.142Z,60.70
2022-12-26T13:43:09.913Z,61.42
2022-12-26T13:45:42.200Z,65.25
2022-12-26T13:48:17.656Z,61.28
2022-12-26T13:50:57.501Z,102.63
2022-12-26T13:53:26.629Z,61.60
2022-12-26T13:55:58.558Z,65.47
2022-12-26T13:58:28.124Z,70.85
2022-12-26T14:01:05.377Z,72.43
2022-12-26T14:04:00.290Z,71.70
2022-12-26T14:06:41.078Z,59.50
2022-12-26T14:09:32.828Z,59.27
2022-12-26T14:12:20.443Z,71.43
2022-12-26T14:14:59.060Z,94.20
2022-12-26T14:18:03.187Z,103.22
2022-12-26T14:20:41.982Z,71.75
2022-12-26T14:23:26.600Z,72.30
2022-12-26T14:26:02.355Z,104.07
2022-12-26T14:29:07.778Z,87.80
2022-12-26T14:32:06.418Z,91.53
2022-12-26T14:34:54.689Z,70.10
2022-12-26T14:37:46.246Z,56.85
2022-12-26T14:40:30.302Z,61.60
2022-12-26T14:43:14.020Z,75.25
2022-12-26T14:45:52.204Z,105.97
2022-12-26T14:48:18.735Z,73.40
2022-12-26T14:50:49.720Z,54.92
2022-12-26T14:53:28.329Z,58.20
2022-12-26T14:56:34.307Z,62.03
2022-12-26T14:59:25.962Z,126.60
2022-12-26T15:05:19.451Z,87.00
2022-12-26T15:08:16.517Z,72.82
2022-12-26T15:11:05.184Z,85.72
2022-12-26T15:13:37.663Z,69.95
2022-12-26T15:16:09.508Z,67.03
2022-12-26T15:18:44.964Z,60.33
2022-12-26T15:21:31.725Z,61.17
2022-12-26T15:24:07.179Z,64.00
2022-12-26T15:26:59.932Z,53.63
2022-12-26T15:29:44.508Z,60.63
2022-12-26T15:32:27.632Z,65.78
2022-12-26T15:35:07.328Z,49.75
2022-12-26T15:37:45.482Z,60.33
2022-12-26T15:40:15.945Z,62.47
2022-12-26T15:42:50.335Z,54.27
2022-12-26T15:45:47.469Z,58.92
2022-12-26T15:48:27.236Z,75.43
2022-12-26T15:50:59.227Z,69.10
2022-12-26T15:53:41.572Z,81.97
2022-12-26T15:56:38.073Z,64.35
2022-12-26T15:59:29.211Z,81.78
2022-12-26T16:01:56.323Z,104.13
2022-12-26T16:04:31.378Z,96.22
2022-12-26T16:07:03.950Z,82.03
2022-12-26T16:09:52.896Z,88.95
2022-12-26T16:12:27.522Z,74.05
2022-12-26T16:15:09.137Z,62.70
2022-12-26T16:17:40.233Z,58.67
2022-12-26T16:20:43.424Z,53.30
2022-12-26T16:23:20.694Z,64.35
2022-12-26T16:25:49.204Z,72.65
2022-12-26T16:28:19.486Z,54.42
2022-12-26T16:30:46.053Z,49.03
2022-12-26T16:33:14.623Z,54.80
2022-12-26T16:35:43.010Z,59.67
2022-12-26T16:38:21.730Z,45.20
2022-12-26T16:40:50.891Z,46.38
2022-12-26T16:43:26.470Z,46.33
2022-12-26T16:45:56.095Z,40.80
2022-12-26T16:48:24.800Z,48.67
2022-12-26T16:50:58.024Z,55.13
2022-12-26T16:53:36.359Z,48.75
2022-12-26T16:56:24.702Z,50.53
2022-12-26T16:59:02.743Z,76.95
2022-12-26T17:01:32.428Z,61.47
2022-12-26T17:04:05.011Z,53.35
2022-12-26T17:06:38.974Z,47.78
2022-12-26T17:09:17.229Z,49.63
2022-12-26T17:11:56.010Z,49.20
2022-12-26T17:14:28.115Z,45.13
2022-12-26T17:17:00.636Z,46.40
2022-12-26T17:19:29.721Z,58.75
2022-12-26T17:22:14.604Z,75.18
2022-12-26T17:24:45.807Z,54.15
2022-12-26T17:27:24.579Z,41.00
2022-12-26T17:30:00.705Z,53.40
2022-12-26T17:32:33.316Z,47.88
2022-12-26T17:35:07.199Z,63.08
2022-12-26T17:37:37.470Z,60.40
2022-12-26T17:40:06.800Z,57.90
2022-12-26T17:42:47.820Z,161.63
2022-12-26T17:45:24.045Z,105.03
2022-12-26T17:47:52.921Z,64.10
2022-12-26T17:50:20.340Z,52.70
2022-12-26T17:52:47.234Z,56.72
2022-12-26T17:55:25.524Z,52.40
2022-12-26T17:57:52.939Z,55.33
2022-12-26T18:00:22.407Z,50.13
2022-12-26T18:02:49.375Z,60.15
2022-12-26T18:05:16.747Z,51.63
2022-12-26T18:07:44.833Z,49.65
2022-12-26T18:10:21.251Z,48.80
2022-12-26T18:12:48.416Z,47.53
2022-12-26T18:15:18.876Z,46.08
2022-12-26T18:17:47.703Z,49.07
2022-12-26T18:20:26.031Z,61.60
2022-12-26T18:22:52.840Z,57.00
2022-12-26T18:25:23.668Z,50.47
2022-12-26T18:27:50.618Z,40.25
2022-12-26T18:30:20.797Z,46.05
2022-12-26T18:32:49.263Z,41.78
2022-12-26T18:35:16.273Z,59.30
2022-12-26T18:37:47.826Z,66.75
2022-12-26T18:40:33.473Z,57.33
2022-12-26T18:43:00.254Z,56.30
2022-12-26T18:45:27.046Z,59.80
2022-12-26T18:47:53.547Z,61.50
2022-12-26T18:50:20.412Z,57.42
2022-12-26T18:52:51.765Z,51.85
2022-12-26T18:55:20.004Z,52.30
2022-12-26T18:57:46.398Z,45.72
2022-12-26T19:00:14.284Z,47.00
2022-12-26T19:02:41.576Z,53.03
2022-12-26T19:05:16.008Z,46.35
2022-12-26T19:07:42.435Z,50.80
2022-12-26T19:10:12.082Z,73.63
2022-12-26T19:12:38.508Z,74.30
2022-12-26T19:15:05.260Z,52.13
2022-12-26T19:17:31.656Z,43.75
2022-12-26T19:19:59.090Z,45.30
2022-12-26T19:22:25.496Z,47.63
2022-12-26T19:24:53.414Z,53.70
2022-12-26T19:27:19.853Z,42.45
2022-12-26T19:29:46.261Z,47.47
2022-12-26T19:32:12.759Z,43.42
2022-12-26T19:34:39.252Z,44.28
2022-12-26T19:37:05.717Z,52.67
2022-12-26T19:39:32.155Z,48.83
2022-12-26T19:41:58.581Z,45.00
2022-12-26T19:44:24.978Z,57.80
2022-12-26T19:47:11.725Z,74.13
2022-12-26T19:49:37.875Z,53.95
2022-12-26T19:52:04.531Z,60.78
2022-12-26T19:54:30.930Z,58.80
2022-12-26T19:56:57.437Z,56.63
2022-12-26T19:59:23.847Z,52.05
2022-12-26T20:01:50.486Z,48.50
2022-12-26T20:04:17.099Z,52.22
2022-12-26T20:06:43.536Z,49.53
2022-12-26T20:09:12.392Z,46.40
2022-12-26T20:11:44.954Z,49.95
2022-12-26T20:14:14.347Z,44.45
2022-12-26T20:19:27.306Z,52.75
2022-12-26T20:21:54.147Z,47.97
2022-12-26T20:24:22.861Z,50.95
2022-12-26T20:26:50.520Z,46.40
2022-12-26T20:29:17.276Z,41.30
2022-12-26T20:31:43.814Z,46.00
2022-12-26T20:34:11.536Z,42.28
2022-12-26T20:36:38.757Z,52.53
2022-12-26T20:39:14.260Z,50.78
2022-12-26T20:41:41.508Z,46.65
2022-12-26T20:44:08.072Z,41.15
2022-12-26T20:46:35.289Z,47.47
2022-12-26T20:49:04.435Z,45.40
2022-12-26T20:51:37.672Z,47.50
2022-12-26T20:54:06.746Z,46.10
2022-12-26T20:56:33.850Z,44.75
2022-12-26T20:59:00.434Z,40.20
2022-12-26T21:01:27.723Z,46.95
2022-12-26T21:03:55.411Z,41.72
2022-12-26T21:06:25.355Z,40.80
2022-12-26T21:08:53.124Z,49.05
2022-12-26T21:11:30.058Z,45.92
2022-12-26T21:14:03.374Z,46.97
2022-12-26T21:16:36.000Z,48.35
2022-12-26T21:19:03.802Z,51.75
2022-12-26T21:21:33.972Z,46.15
2022-12-26T21:24:06.813Z,46.58
2022-12-26T21:26:36.472Z,42.28
2022-12-26T21:29:05.962Z,42.70
2022-12-26T21:31:34.416Z,43.53
2022-12-26T21:34:02.067Z,48.42
2022-12-26T21:36:29.075Z,40.35
2022-12-26T21:38:57.111Z,41.67
2022-12-26T21:41:25.107Z,45.88
2022-12-26T21:43:54.299Z,48.95
2022-12-26T21:46:20.831Z,39.78
2022-12-26T21:48:47.642Z,55.35
2022-12-26T21:51:15.509Z,65.80
2022-12-26T21:53:42.462Z,56.30
2022-12-26T21:56:10.556Z,67.43
2022-12-26T21:58:56.164Z,72.00
2022-12-26T22:01:24.496Z,68.50
2022-12-26T22:04:10.268Z,59.22
2022-12-26T22:06:37.361Z,78.85
2022-12-26T22:09:04.609Z,71.50
2022-12-26T22:12:06.451Z,56.55
2022-12-26T22:14:33.714Z,52.50
2022-12-26T22:17:00.264Z,57.25
2022-12-26T22:19:26.896Z,54.75
2022-12-26T22:21:54.978Z,55.13
2022-12-26T22:24:22.036Z,52.83
2022-12-26T22:26:48.740Z,41.03
2022-12-26T22:29:15.291Z,48.67
2022-12-26T22:31:41.847Z,52.45
2022-12-26T22:34:12.318Z,56.03
2022-12-26T22:36:40.306Z,52.57
2022-12-26T22:39:07.497Z,63.40
2022-12-26T22:41:34.158Z,51.83
2022-12-26T22:44:00.705Z,59.13
2022-12-26T22:46:27.212Z,64.97
2022-12-26T22:48:53.734Z,45.50
2022-12-26T22:51:25.353Z,42.70
2022-12-26T22:53:57.143Z,50.35
2022-12-26T22:56:23.700Z,54.75
2022-12-26T22:58:54.459Z,77.38
2022-12-26T23:01:21.825Z,73.30
2022-12-26T23:03:48.729Z,70.82
2022-12-26T23:06:26.991Z,42.38
2022-12-26T23:08:56.790Z,37.65
2022-12-26T23:11:28.784Z,38.28
2022-12-26T23:14:01.949Z,29.20
2022-12-26T23:16:50.643Z,34.63
2022-12-26T23:20:06.204Z,61.25
2022-12-26T23:22:33.095Z,54.15
2022-12-26T23:24:59.538Z,53.40
2022-12-26T23:27:44.340Z,81.82
2022-12-26T23:30:20.248Z,89.78
2022-12-26T23:32:52.608Z,83.00
2022-12-26T23:35:20.611Z,84.20
2022-12-26T23:37:47.581Z,45.63
2022-12-26T23:40:18.241Z,66.63
2022-12-26T23:42:45.128Z,54.28
2022-12-26T23:45:14.149Z,63.35
2022-12-26T23:47:42.624Z,39.22
2022-12-26T23:50:11.147Z,36.45
2022-12-26T23:52:38.130Z,38.92
2022-12-26T23:55:05.276Z,29.35
2022-12-26T23:57:31.720Z,36.17
2022-12-26T23:59:58.154Z,28.27
